Time;durP1;ratioP1;P1;durP2;ratioP2;P2;SDS_P1;SDS_P2;PMS_P1;PMS_P2;Temp;Humidity;BMP_temperature;BMP_pressure;BME280_temperature;BME280_humidity;BME280_pressure;Samples;Min_cycle;Max_cycle;Signal;HPM_P1;HPM_P2
2024/01/24 00:00:19;;;;;;;7.80;2.78;;;5.60;99.90;;;;;;5016739;28;20053;-64
2024/01/24 00:02:46;;;;;;;8.60;2.67;;;5.60;99.90;;;;;;5006417;28;20025;-64
2024/01/24 00:05:11;;;;;;;13.88;2.75;;;5.50;99.90;;;;;;5004504;28;20508;-65
2024/01/24 00:07:37;;;;;;;12.65;2.83;;;5.60;99.90;;;;;;5015835;28;20376;-64
2024/01/24 00:10:03;;;;;;;14.05;2.97;;;5.50;99.90;;;;;;5011331;28;20031;-65
2024/01/24 00:12:28;;;;;;;12.15;2.80;;;5.50;99.90;;;;;;5015613;28;20041;-64
2024/01/24 00:14:54;;;;;;;15.88;2.85;;;5.50;99.90;;;;;;5015553;28;20099;-64
2024/01/24 00:17:19;;;;;;;9.73;2.40;;;5.50;99.90;;;;;;5012551;28;20040;-64
2024/01/24 00:19:45;;;;;;;12.60;2.50;;;5.50;99.90;;;;;;5007364;28;20044;-64
2024/01/24 00:22:11;;;;;;;16.27;4.15;;;5.50;99.90;;;;;;5010354;28;20029;-64
2024/01/24 00:24:37;;;;;;;12.05;2.20;;;5.50;99.90;;;;;;5014572;28;20022;-65
2024/01/24 00:27:02;;;;;;;13.55;2.90;;;5.50;99.90;;;;;;5014931;28;20409;-64
2024/01/24 00:29:28;;;;;;;12.25;2.83;;;5.50;99.90;;;;;;5014090;28;20068;-65
2024/01/24 00:31:56;;;;;;;17.33;3.63;;;5.50;99.90;;;;;;5017604;28;20040;-65
2024/01/24 00:34:21;;;;;;;11.63;3.83;;;5.50;99.90;;;;;;5014688;28;20048;-64
2024/01/24 00:36:49;;;;;;;12.82;2.55;;;5.60;99.90;;;;;;5011931;28;20457;-64
2024/01/24 00:39:14;;;;;;;16.75;3.95;;;5.60;99.90;;;;;;5006862;28;20112;-64
2024/01/24 00:41:43;;;;;;;17.73;2.60;;;5.60;99.90;;;;;;5012058;28;20557;-64
2024/01/24 00:44:09;;;;;;;10.48;2.95;;;5.60;99.90;;;;;;5008703;28;20490;-64
2024/01/24 00:46:35;;;;;;;13.80;3.28;;;5.60;99.90;;;;;;5017826;28;20038;-64
2024/01/24 00:49:02;;;;;;;10.18;2.90;;;5.60;99.90;;;;;;5011166;28;20029;-64
2024/01/24 00:51:28;;;;;;;10.50;2.67;;;5.60;99.90;;;;;;5016767;28;20068;-65
2024/01/24 00:53:53;;;;;;;19.90;3.95;;;5.70;99.90;;;;;;5012887;28;20060;-65
2024/01/24 00:56:20;;;;;;;9.00;2.42;;;5.60;99.90;;;;;;5014891;28;20029;-64
2024/01/24 00:58:46;;;;;;;9.15;2.55;;;5.70;99.90;;;;;;5016766;28;20037;-65
2024/01/24 01:01:11;;;;;;;8.70;2.08;;;5.70;99.90;;;;;;5012624;28;20032;-64
2024/01/24 01:03:38;;;;;;;12.82;2.85;;;5.70;99.90;;;;;;5008796;28;20440;-64
2024/01/24 01:06:04;;;;;;;10.13;2.35;;;5.70;99.90;;;;;;5016712;28;20026;-65
2024/01/24 01:08:30;;;;;;;11.55;3.08;;;5.80;99.90;;;;;;5014384;28;20112;-64
2024/01/24 01:10:55;;;;;;;5.97;2.17;;;5.80;99.90;;;;;;5013135;28;20124;-64
2024/01/24 01:13:21;;;;;;;6.13;2.03;;;5.80;99.90;;;;;;5015671;28;20061;-65
2024/01/24 01:15:46;;;;;;;7.65;2.42;;;5.80;99.90;;;;;;5015924;28;20440;-64
2024/01/24 01:18:12;;;;;;;13.68;2.75;;;5.80;99.90;;;;;;5018007;28;20018;-65
2024/01/24 01:20:37;;;;;;;11.20;2.28;;;5.80;99.90;;;;;;5016617;28;20028;-64
2024/01/24 01:23:03;;;;;;;9.93;1.95;;;5.80;99.90;;;;;;5017445;28;20045;-64
2024/01/24 01:25:29;;;;;;;10.60;2.88;;;5.80;99.90;;;;;;5018457;28;20033;-64
2024/01/24 01:27:54;;;;;;;10.38;2.53;;;5.80;99.90;;;;;;5013586;28;20053;-64
2024/01/24 01:30:20;;;;;;;8.20;2.08;;;5.90;99.90;;;;;;5014870;28;20033;-64
2024/01/24 01:32:46;;;;;;;7.85;2.28;;;5.90;99.90;;;;;;5016136;28;20022;-64
2024/01/24 01:35:12;;;;;;;5.90;1.77;;;5.90;99.90;;;;;;5015757;28;20398;-64
2024/01/24 01:37:38;;;;;;;10.35;2.15;;;5.90;99.90;;;;;;5016869;28;20041;-64
2024/01/24 01:40:06;;;;;;;3.38;1.80;;;5.80;99.90;;;;;;5016974;28;20021;-65
2024/01/24 01:42:31;;;;;;;4.93;2.17;;;5.90;99.90;;;;;;5014059;28;20061;-64
2024/01/24 01:44:57;;;;;;;8.45;3.03;;;5.90;99.90;;;;;;5015745;28;20494;-64
2024/01/24 01:47:23;;;;;;;8.27;2.00;;;5.90;99.90;;;;;;5010675;28;20038;-64
2024/01/24 01:49:48;;;;;;;8.20;1.83;;;6.00;99.90;;;;;;5018345;28;20068;-64
2024/01/24 01:52:15;;;;;;;4.57;1.77;;;6.00;99.90;;;;;;5009883;28;20092;-64
2024/01/24 01:54:42;;;;;;;4.10;1.63;;;6.00;99.90;;;;;;5016219;28;20072;-64
2024/01/24 01:57:10;;;;;;;8.48;2.40;;;5.90;99.90;;;;;;5018915;28;20029;-64
2024/01/24 01:59:37;;;;;;;6.20;2.20;;;6.00;99.90;;;;;;5015395;28;20038;-64
2024/01/24 02:02:04;;;;;;;8.10;1.75;;;6.00;99.90;;;;;;5011350;28;20033;-64
2024/01/24 02:04:30;;;;;;;4.10;1.55;;;6.00;99.90;;;;;;5010729;28;20444;-64
2024/01/24 02:06:56;;;;;;;6.15;1.42;;;6.10;99.90;;;;;;5022012;28;20084;-64
2024/01/24 02:09:22;;;;;;;5.05;1.33;;;6.10;99.90;;;;;;5009819;28;20065;-64
2024/01/24 02:11:47;;;;;;;4.07;1.42;;;6.10;99.90;;;;;;5020768;28;20045;-64
2024/01/24 02:14:13;;;;;;;4.90;1.75;;;6.10;99.90;;;;;;5016779;28;20471;-64
2024/01/24 02:16:38;;;;;;;7.43;1.75;;;6.20;99.90;;;;;;5022385;28;20025;-64
2024/01/24 02:19:05;;;;;;;4.80;1.42;;;6.10;99.90;;;;;;5021422;28;20045;-64
2024/01/24 02:21:30;;;;;;;3.53;1.30;;;6.20;99.90;;;;;;5020197;28;20036;-64
2024/01/24 02:23:58;;;;;;;2.92;1.40;;;6.20;99.90;;;;;;5016634;28;20034;-64
2024/01/24 02:26:23;;;;;;;4.28;1.10;;;6.20;99.90;;;;;;5018092;28;20039;-65
2024/01/24 02:28:49;;;;;;;3.13;1.35;;;6.20;99.90;;;;;;5020017;28;20029;-64
2024/01/24 02:31:14;;;;;;;1.60;0.73;;;6.20;99.90;;;;;;5020711;28;20505;-64
2024/01/24 02:33:40;;;;;;;4.25;1.08;;;6.30;99.90;;;;;;5019171;28;20013;-64
2024/01/24 02:36:06;;;;;;;3.47;0.95;;;6.30;99.90;;;;;;5019586;28;20029;-64
2024/01/24 02:38:31;;;;;;;3.15;1.38;;;6.30;99.90;;;;;;5022855;28;20488;-64
2024/01/24 02:40:57;;;;;;;4.20;1.08;;;6.40;99.90;;;;;;5018536;28;20577;-64
2024/01/24 02:43:22;;;;;;;1.40;0.70;;;6.40;99.90;;;;;;5019663;28;20030;-65
2024/01/24 02:45:48;;;;;;;3.33;1.08;;;6.40;99.90;;;;;;5018823;28;20476;-64
2024/01/24 02:48:13;;;;;;;3.45;1.00;;;6.40;99.90;;;;;;5017867;28;20026;-65
2024/01/24 02:50:39;;;;;;;1.85;0.80;;;6.50;99.90;;;;;;5013551;28;20054;-64
2024/01/24 02:53:04;;;;;;;0.85;0.70;;;6.50;99.90;;;;;;5008294;28;20517;-64
2024/01/24 02:55:29;;;;;;;4.15;1.48;;;6.50;99.90;;;;;;5014422;28;20557;-64
2024/01/24 02:57:55;;;;;;;3.83;0.90;;;6.50;99.90;;;;;;5010068;28;20060;-64
2024/01/24 03:00:20;;;;;;;2.35;1.30;;;6.60;99.90;;;;;;5017073;28;20042;-64
2024/01/24 03:02:46;;;;;;;3.55;1.30;;;6.60;99.90;;;;;;5017705;28;20080;-64
2024/01/24 03:05:12;;;;;;;2.90;0.95;;;6.70;99.90;;;;;;5023631;28;20029;-65
2024/01/24 03:07:38;;;;;;;3.40;1.40;;;6.70;99.90;;;;;;5018480;28;20453;-65
2024/01/24 03:10:04;;;;;;;3.10;1.23;;;6.70;99.90;;;;;;5018340;28;20029;-65
2024/01/24 03:12:30;;;;;;;1.85;1.00;;;6.70;99.90;;;;;;5021524;28;20038;-64
2024/01/24 03:14:56;;;;;;;5.07;1.40;;;6.70;99.90;;;;;;5013590;28;20087;-64
2024/01/24 03:17:21;;;;;;;4.20;1.88;;;6.80;99.90;;;;;;5013511;28;20087;-64
2024/01/24 03:19:47;;;;;;;3.58;1.75;;;6.80;99.90;;;;;;5019370;28;20032;-64
2024/01/24 03:22:13;;;;;;;5.20;2.17;;;6.80;99.90;;;;;;5016434;28;20034;-64
2024/01/24 03:24:38;;;;;;;5.95;1.52;;;6.80;99.90;;;;;;5016688;28;20018;-64
2024/01/24 03:27:04;;;;;;;4.53;1.52;;;6.80;99.90;;;;;;5016489;28;20477;-65
2024/01/24 03:29:29;;;;;;;4.60;1.40;;;6.80;99.90;;;;;;5015563;28;20029;-64
2024/01/24 03:31:55;;;;;;;1.83;1.13;;;6.80;99.90;;;;;;5010363;28;20411;-64
2024/01/24 03:34:21;;;;;;;3.00;1.40;;;6.80;99.90;;;;;;5012550;28;20029;-64
2024/01/24 03:36:47;;;;;;;3.33;1.40;;;6.90;99.90;;;;;;5013885;28;20037;-64
2024/01/24 03:39:13;;;;;;;3.25;1.15;;;6.90;99.90;;;;;;5009505;28;20423;-64
2024/01/24 03:41:38;;;;;;;2.13;1.45;;;6.90;99.90;;;;;;5017539;28;20048;-65
2024/01/24 03:44:04;;;;;;;3.53;1.15;;;7.00;99.90;;;;;;5010716;28;20029;-64
2024/01/24 03:46:30;;;;;;;5.28;1.45;;;7.00;99.90;;;;;;5014651;28;20063;-64
2024/01/24 03:48:56;;;;;;;1.98;1.40;;;7.00;99.90;;;;;;5013914;28;20128;-64
2024/01/24 03:51:22;;;;;;;3.88;1.67;;;7.00;99.90;;;;;;5017226;28;20036;-64
2024/01/24 03:53:47;;;;;;;2.58;1.65;;;7.10;99.90;;;;;;5018714;28;20414;-64
2024/01/24 03:56:13;;;;;;;4.85;1.60;;;7.10;99.90;;;;;;5014029;28;20035;-64
2024/01/24 03:58:38;;;;;;;5.90;1.50;;;7.10;99.90;;;;;;5014378;28;20037;-65
2024/01/24 04:01:05;;;;;;;2.47;1.67;;;7.20;99.90;;;;;;5019473;28;20052;-64
2024/01/24 04:03:30;;;;;;;3.65;1.60;;;7.20;99.90;;;;;;5016802;28;20100;-64
2024/01/24 04:05:56;;;;;;;4.68;1.48;;;7.20;99.90;;;;;;5017874;28;20820;-64
2024/01/24 04:08:21;;;;;;;5.70;1.60;;;7.30;99.90;;;;;;5023570;28;20532;-64
2024/01/24 04:10:47;;;;;;;3.55;1.35;;;7.40;99.90;;;;;;5012571;28;20051;-64
2024/01/24 04:13:13;;;;;;;4.45;1.77;;;7.40;99.90;;;;;;5015410;28;20032;-61
2024/01/24 04:15:39;;;;;;;8.45;1.60;;;7.40;99.90;;;;;;5018147;28;20021;-62
2024/01/24 04:18:04;;;;;;;4.18;1.70;;;7.40;99.90;;;;;;5022321;28;20497;-61
2024/01/24 04:20:30;;;;;;;3.50;1.58;;;7.40;99.90;;;;;;5012405;28;20610;-61
2024/01/24 04:22:55;;;;;;;4.20;1.70;;;7.50;99.90;;;;;;5015865;28;20549;-61
2024/01/24 04:25:21;;;;;;;7.18;1.73;;;7.50;99.90;;;;;;5018153;28;20025;-62
2024/01/24 04:27:46;;;;;;;5.63;1.95;;;7.60;99.90;;;;;;5015528;28;20454;-61
2024/01/24 04:30:12;;;;;;;3.67;1.40;;;7.60;99.90;;;;;;5017167;28;20021;-61
2024/01/24 04:32:38;;;;;;;4.20;1.85;;;7.60;99.90;;;;;;5022609;28;20038;-62
2024/01/24 04:35:04;;;;;;;4.72;1.77;;;7.60;99.90;;;;;;5020992;28;20033;-61
2024/01/24 04:37:29;;;;;;;3.58;1.40;;;7.70;99.90;;;;;;5023966;28;20029;-62
2024/01/24 04:39:54;;;;;;;4.70;1.75;;;7.70;99.90;;;;;;5021242;28;20552;-61
2024/01/24 04:42:20;;;;;;;6.32;2.20;;;7.70;99.90;;;;;;5025488;28;20026;-61
2024/01/24 04:44:46;;;;;;;5.40;1.63;;;7.80;99.90;;;;;;5024590;28;20033;-61
2024/01/24 04:47:14;;;;;;;7.13;1.45;;;7.80;99.90;;;;;;5022991;28;20033;-61
2024/01/24 04:49:40;;;;;;;4.45;1.73;;;7.80;99.90;;;;;;5026868;28;20029;-61
2024/01/24 04:52:06;;;;;;;5.47;1.65;;;7.80;99.90;;;;;;5018907;28;20084;-61
2024/01/24 04:54:35;;;;;;;5.47;1.70;;;7.80;99.90;;;;;;5023934;28;20038;-61
2024/01/24 04:57:02;;;;;;;4.15;2.40;;;7.90;99.90;;;;;;5023384;28;20040;-61
2024/01/24 04:59:28;;;;;;;4.00;1.50;;;7.90;99.90;;;;;;5024807;28;20041;-61
2024/01/24 05:01:54;;;;;;;4.35;1.38;;;7.90;99.90;;;;;;5011820;28;20030;-61
2024/01/24 05:04:19;;;;;;;4.55;1.80;;;8.00;99.90;;;;;;5018668;28;20017;-61
2024/01/24 05:06:45;;;;;;;3.75;1.35;;;8.00;99.90;;;;;;5027794;28;20038;-61
2024/01/24 05:09:10;;;;;;;4.40;1.80;;;8.10;99.90;;;;;;5022618;28;20089;-62
2024/01/24 05:11:42;;;;;;;5.15;2.08;;;8.10;99.90;;;;;;5024806;28;20425;-62
2024/01/24 05:14:08;;;;;;;3.05;1.50;;;8.20;99.90;;;;;;5021047;28;20033;-62
2024/01/24 05:16:33;;;;;;;6.40;1.85;;;8.20;99.90;;;;;;5038707;28;20017;-62
2024/01/24 05:18:59;;;;;;;6.68;2.03;;;8.20;99.90;;;;;;5018422;28;20026;-62
2024/01/24 05:21:24;;;;;;;5.57;2.05;;;8.30;99.90;;;;;;5023867;28;20029;-62
2024/01/24 05:23:53;;;;;;;5.88;2.08;;;8.30;99.90;;;;;;5026784;28;20036;-62
2024/01/24 05:26:19;;;;;;;4.53;1.70;;;8.40;99.90;;;;;;5025127;28;20031;-62
2024/01/24 05:28:44;;;;;;;8.35;1.85;;;8.40;99.90;;;;;;5025814;28;20022;-62
2024/01/24 05:31:10;;;;;;;5.72;1.90;;;8.40;99.90;;;;;;5025401;28;20041;-62
2024/01/24 05:33:36;;;;;;;5.65;1.70;;;8.50;99.90;;;;;;5019667;28;20037;-62
2024/01/24 05:36:01;;;;;;;6.18;1.65;;;8.50;99.90;;;;;;5018972;28;20564;-62
2024/01/24 05:38:28;;;;;;;8.27;1.75;;;8.60;99.90;;;;;;5026228;28;20312;-62
2024/01/24 05:40:54;;;;;;;4.22;1.50;;;8.60;99.90;;;;;;5017581;28;20490;-62
2024/01/24 05:43:19;;;;;;;4.82;1.52;;;8.60;99.90;;;;;;5013615;28;20056;-62
2024/01/24 05:45:49;;;;;;;2.67;1.50;;;8.70;99.90;;;;;;5011966;28;20049;-61
2024/01/24 05:48:15;;;;;;;5.13;1.50;;;8.70;99.90;;;;;;5019184;28;20569;-62
2024/01/24 05:50:40;;;;;;;4.03;1.70;;;8.80;99.90;;;;;;5014559;28;20028;-62
2024/01/24 05:53:06;;;;;;;2.97;1.80;;;8.80;99.90;;;;;;5011591;28;20026;-61
2024/01/24 05:55:31;;;;;;;4.15;1.73;;;8.90;99.90;;;;;;5014222;28;20037;-62
2024/01/24 05:57:57;;;;;;;5.43;2.10;;;8.90;99.90;;;;;;5016888;28;20021;-61
2024/01/24 06:00:22;;;;;;;3.55;1.77;;;9.00;99.90;;;;;;5012017;28;20041;-62
2024/01/24 06:02:48;;;;;;;8.25;1.77;;;9.00;99.90;;;;;;5010579;28;20091;-62
2024/01/24 06:05:15;;;;;;;6.80;1.63;;;9.10;99.90;;;;;;5013060;28;20028;-62
2024/01/24 06:07:40;;;;;;;6.80;1.60;;;9.20;99.90;;;;;;5016244;28;20033;-62
2024/01/24 06:10:07;;;;;;;2.30;1.40;;;9.20;99.90;;;;;;5015849;28;20034;-63
2024/01/24 06:12:32;;;;;;;4.78;1.52;;;9.20;99.90;;;;;;5019961;28;20064;-62
2024/01/24 06:14:58;;;;;;;4.20;1.52;;;9.30;99.90;;;;;;5015982;28;20481;-62
2024/01/24 06:17:23;;;;;;;3.50;1.10;;;9.30;99.90;;;;;;5009511;28;20022;-61
2024/01/24 06:19:52;;;;;;;3.75;1.25;;;9.30;99.90;;;;;;5013810;28;20423;-62
2024/01/24 06:22:18;;;;;;;3.03;1.52;;;9.30;99.90;;;;;;5019793;28;20021;-62
2024/01/24 06:24:44;;;;;;;2.33;1.17;;;9.30;99.90;;;;;;5017510;28;20404;-63
2024/01/24 06:27:10;;;;;;;5.45;1.08;;;9.30;99.90;;;;;;5020817;28;20029;-61
2024/01/24 06:29:36;;;;;;;3.22;1.13;;;9.40;99.90;;;;;;5018023;28;20167;-62
2024/01/24 06:32:01;;;;;;;2.92;1.38;;;9.40;99.90;;;;;;5018032;28;20108;-62
2024/01/24 06:34:27;;;;;;;3.70;1.48;;;9.40;99.90;;;;;;5018779;28;20028;-62
2024/01/24 06:36:52;;;;;;;2.10;1.10;;;9.40;99.90;;;;;;5016062;28;20036;-62
2024/01/24 06:39:18;;;;;;;4.32;1.40;;;9.50;99.90;;;;;;5021110;28;20470;-62
2024/01/24 06:41:44;;;;;;;4.55;1.30;;;9.50;99.90;;;;;;5021515;28;20036;-61
2024/01/24 06:44:10;;;;;;;3.70;1.02;;;9.60;99.90;;;;;;5020314;28;20128;-61
2024/01/24 06:46:42;;;;;;;2.88;1.20;;;9.60;99.90;;;;;;5019404;28;20120;-62
2024/01/24 06:49:10;;;;;;;2.70;0.93;;;9.60;99.90;;;;;;5009210;28;20028;-62
2024/01/24 06:51:37;;;;;;;3.03;1.02;;;9.70;99.90;;;;;;5013768;28;20168;-63
2024/01/24 06:54:03;;;;;;;4.78;1.27;;;9.70;99.90;;;;;;5009559;28;20415;-62
2024/01/24 06:56:28;;;;;;;3.72;0.70;;;9.70;99.90;;;;;;5011897;28;20022;-62
2024/01/24 06:58:54;;;;;;;1.30;1.15;;;9.80;99.90;;;;;;5009455;28;20076;-62
2024/01/24 07:01:19;;;;;;;1.52;0.70;;;9.80;99.90;;;;;;5006329;28;20116;-62
2024/01/24 07:03:45;;;;;;;3.20;0.90;;;9.80;99.90;;;;;;5021601;28;20034;-62
2024/01/24 07:06:10;;;;;;;3.97;1.23;;;9.90;99.90;;;;;;5016205;28;20087;-62
2024/01/24 07:08:39;;;;;;;3.10;0.90;;;9.90;99.90;;;;;;5014035;28;20036;-63
2024/01/24 07:11:05;;;;;;;3.75;1.17;;;10.00;99.90;;;;;;5016956;28;20037;-62
2024/01/24 07:13:31;;;;;;;2.70;1.02;;;9.90;99.90;;;;;;5013725;28;20026;-62
2024/01/24 07:15:56;;;;;;;2.28;0.85;;;9.80;99.90;;;;;;5004820;28;20041;-62
2024/01/24 07:18:22;;;;;;;3.95;0.70;;;9.70;99.90;;;;;;5008917;28;20036;-63
2024/01/24 07:20:48;;;;;;;1.65;0.63;;;9.60;99.90;;;;;;5008324;28;20017;-62
2024/01/24 07:23:13;;;;;;;2.15;0.60;;;9.40;99.90;;;;;;5015481;28;20402;-62
2024/01/24 07:25:38;;;;;;;2.42;0.50;;;9.30;99.90;;;;;;5005294;28;20034;-62
2024/01/24 07:28:06;;;;;;;2.08;0.50;;;9.20;99.90;;;;;;5020935;28;20528;-62
2024/01/24 07:30:31;;;;;;;2.58;0.80;;;9.20;99.90;;;;;;5007163;28;20018;-62
2024/01/24 07:32:57;;;;;;;5.15;0.95;;;9.10;99.90;;;;;;5014908;28;20057;-62
2024/01/24 07:35:22;;;;;;;4.28;1.30;;;9.10;99.90;;;;;;5003759;28;20026;-62
2024/01/24 07:37:48;;;;;;;6.97;1.73;;;9.10;99.90;;;;;;5012377;28;20171;-62
2024/01/24 07:40:14;;;;;;;5.50;1.98;;;9.20;99.90;;;;;;5007681;28;20413;-62
2024/01/24 07:42:41;;;;;;;5.63;2.13;;;9.20;99.90;;;;;;5019444;28;20120;-62
2024/01/24 07:45:08;;;;;;;7.07;1.73;;;9.20;99.90;;;;;;5011848;28;20030;-62
2024/01/24 07:47:34;;;;;;;7.72;1.75;;;9.20;99.90;;;;;;5014129;28;20312;-63
2024/01/24 07:50:00;;;;;;;11.02;1.88;;;9.20;99.90;;;;;;5010950;28;20029;-62
2024/01/24 07:52:25;;;;;;;11.65;2.22;;;9.10;99.90;;;;;;5017606;28;20485;-62
2024/01/24 07:54:51;;;;;;;8.30;1.67;;;9.10;99.90;;;;;;5009273;28;20511;-63
2024/01/24 07:57:16;;;;;;;9.88;3.13;;;9.10;99.90;;;;;;5013667;28;20556;-62
2024/01/24 07:59:42;;;;;;;7.00;1.60;;;9.20;99.90;;;;;;5019686;28;20052;-62
2024/01/24 08:02:07;;;;;;;9.82;1.70;;;9.40;99.90;;;;;;5015021;28;20390;-62
2024/01/24 08:04:33;;;;;;;13.02;2.85;;;9.50;99.90;;;;;;5008203;28;20041;-62
2024/01/24 08:06:58;;;;;;;12.05;2.03;;;9.50;99.90;;;;;;5015558;28;20036;-63
2024/01/24 08:09:23;;;;;;;11.13;2.38;;;9.60;99.90;;;;;;5010911;28;20142;-62
2024/01/24 08:11:49;;;;;;;11.98;2.15;;;9.80;99.90;;;;;;5008746;28;20058;-62
2024/01/24 08:14:14;;;;;;;12.23;2.78;;;9.90;99.90;;;;;;5016581;28;20560;-62
2024/01/24 08:17:11;;;;;;;8.80;1.90;;;9.90;99.90;;;;;;5016956;28;20017;-62
2024/01/24 08:19:38;;;;;;;17.50;3.40;;;10.00;99.90;;;;;;5019190;28;20030;-62
2024/01/24 08:22:04;;;;;;;6.30;1.50;;;10.10;99.90;;;;;;5016719;28;20390;-63
2024/01/24 08:24:29;;;;;;;9.05;2.30;;;10.20;99.90;;;;;;5022616;28;20508;-62
2024/01/24 08:26:54;;;;;;;9.23;2.60;;;10.30;99.90;;;;;;5013142;28;20144;-63
2024/01/24 08:29:20;;;;;;;9.70;1.80;;;10.30;99.90;;;;;;5016341;28;20018;-62
2024/01/24 08:31:46;;;;;;;4.03;1.65;;;10.40;99.90;;;;;;5016349;28;20029;-63
2024/01/24 08:34:11;;;;;;;11.48;2.15;;;10.40;99.90;;;;;;5018836;28;20037;-62
2024/01/24 08:36:37;;;;;;;9.43;2.50;;;10.40;99.90;;;;;;5013299;28;20271;-62
2024/01/24 08:39:05;;;;;;;5.72;2.25;;;10.50;99.90;;;;;;5020061;28;20517;-62
2024/01/24 08:41:31;;;;;;;10.57;2.10;;;10.70;99.90;;;;;;5013915;28;20543;-62
2024/01/24 08:43:57;;;;;;;9.23;1.50;;;10.90;99.90;;;;;;5016129;28;20029;-62
2024/01/24 08:46:23;;;;;;;9.50;2.00;;;11.00;99.90;;;;;;5007761;28;20034;-62
2024/01/24 08:48:49;;;;;;;10.80;1.90;;;10.90;99.90;;;;;;5012872;28;20018;-62
2024/01/24 08:51:14;;;;;;;8.00;2.67;;;10.90;99.90;;;;;;5010476;28;20047;-62
2024/01/24 08:53:40;;;;;;;6.65;1.77;;;10.80;99.90;;;;;;5008730;28;20152;-63
2024/01/24 08:56:06;;;;;;;10.77;2.22;;;10.70;99.90;;;;;;5008253;28;20907;-62
2024/01/24 08:58:31;;;;;;;11.55;1.90;;;10.70;99.90;;;;;;5015097;28;20029;-62
2024/01/24 09:00:56;;;;;;;7.13;1.83;;;10.70;99.90;;;;;;5008002;28;20439;-62
2024/01/24 09:03:22;;;;;;;7.88;2.20;;;10.70;99.90;;;;;;5006051;28;20026;-62
2024/01/24 09:05:51;;;;;;;9.20;2.50;;;10.70;99.90;;;;;;5009839;28;20103;-62
2024/01/24 09:08:16;;;;;;;10.48;2.15;;;10.60;99.90;;;;;;5017811;28;20084;-63
2024/01/24 09:10:42;;;;;;;11.43;1.75;;;10.50;99.90;;;;;;5013129;28;20026;-63
2024/01/24 09:13:07;;;;;;;4.93;1.50;;;10.40;99.90;;;;;;5013883;28;20459;-62
2024/01/24 09:15:33;;;;;;;8.30;2.03;;;10.20;99.90;;;;;;5016612;28;20040;-62
2024/01/24 09:17:58;;;;;;;8.40;1.33;;;10.10;99.90;;;;;;5019547;28;20080;-62
2024/01/24 09:20:24;;;;;;;9.68;1.67;;;10.10;99.90;;;;;;5015898;28;20060;-62
2024/01/24 09:22:49;;;;;;;10.50;1.90;;;10.00;99.90;;;;;;5022088;28;20025;-63
2024/01/24 09:25:16;;;;;;;9.05;1.95;;;10.10;99.90;;;;;;5006186;28;20030;-63
2024/01/24 09:27:42;;;;;;;15.57;2.10;;;10.10;99.90;;;;;;5014051;28;20018;-62
2024/01/24 09:30:08;;;;;;;10.50;1.92;;;10.10;99.90;;;;;;5016560;28;20024;-63
2024/01/24 09:32:33;;;;;;;10.10;2.08;;;10.10;99.90;;;;;;5021191;28;20377;-62
2024/01/24 09:34:58;;;;;;;8.73;2.30;;;10.10;99.90;;;;;;5022100;28;20017;-62
2024/01/24 09:37:24;;;;;;;11.23;2.33;;;10.10;99.90;;;;;;5020494;28;20029;-62
2024/01/24 09:39:49;;;;;;;4.75;1.50;;;10.10;99.90;;;;;;5014420;28;20026;-63
2024/01/24 09:42:26;;;;;;;5.78;1.52;;;10.20;99.90;;;;;;5013950;28;20597;-63
2024/01/24 09:44:52;;;;;;;9.43;2.05;;;10.20;99.90;;;;;;5011032;28;20034;-63
2024/01/24 09:47:23;;;;;;;13.27;2.78;;;10.10;99.90;;;;;;5013986;28;20068;-63
2024/01/24 09:49:50;;;;;;;6.88;1.95;;;10.10;99.90;;;;;;5021354;28;20033;-62
2024/01/24 09:52:19;;;;;;;12.02;2.13;;;10.20;99.90;;;;;;5019650;28;20059;-62
2024/01/24 09:54:45;;;;;;;7.35;2.05;;;10.30;99.90;;;;;;5015511;28;20494;-63
2024/01/24 09:57:12;;;;;;;11.20;1.67;;;10.50;99.90;;;;;;5017277;28;20033;-62
2024/01/24 09:59:38;;;;;;;8.30;1.98;;;10.70;99.90;;;;;;5011123;28;20042;-62
2024/01/24 10:02:05;;;;;;;8.32;2.25;;;11.00;99.90;;;;;;5011292;28;20456;-62
2024/01/24 10:04:36;;;;;;;11.35;2.78;;;11.10;99.90;;;;;;5013416;28;20030;-63
2024/01/24 10:07:04;;;;;;;10.27;2.55;;;11.20;98.90;;;;;;5013771;28;20037;-62
2024/01/24 10:09:29;;;;;;;9.38;2.75;;;11.40;96.90;;;;;;5017350;28;20029;-62
2024/01/24 10:11:54;;;;;;;10.98;2.80;;;11.50;97.90;;;;;;5014141;28;20052;-62
2024/01/24 10:14:20;;;;;;;13.80;2.80;;;11.60;97.80;;;;;;5017137;28;20032;-63
2024/01/24 10:16:45;;;;;;;16.23;3.20;;;11.60;96.30;;;;;;5018474;28;20029;-66
2024/01/24 10:19:11;;;;;;;12.27;2.33;;;11.60;96.60;;;;;;5013218;28;20040;-65
2024/01/24 10:21:40;;;;;;;14.63;2.88;;;11.70;96.90;;;;;;5011256;28;20025;-69
2024/01/24 10:24:06;;;;;;;12.68;2.90;;;11.60;97.30;;;;;;5020961;28;20032;-70
2024/01/24 10:26:33;;;;;;;8.23;2.53;;;11.60;97.40;;;;;;5016880;28;20036;-69
2024/01/24 10:28:59;;;;;;;10.27;2.83;;;11.70;97.20;;;;;;5015513;28;20034;-70
2024/01/24 10:31:24;;;;;;;11.38;2.30;;;11.70;97.30;;;;;;5013076;28;20591;-71
2024/01/24 10:33:54;;;;;;;11.60;2.65;;;11.70;97.50;;;;;;5010619;28;20026;-69
2024/01/24 10:36:20;;;;;;;11.05;2.22;;;11.70;97.40;;;;;;5007796;28;20029;-70
2024/01/24 10:38:48;;;;;;;9.63;2.13;;;11.80;97.60;;;;;;5011901;28;20145;-69
2024/01/24 10:41:16;;;;;;;11.48;2.80;;;11.90;97.90;;;;;;5016554;28;20018;-69
2024/01/24 10:43:50;;;;;;;15.98;2.60;;;12.00;96.70;;;;;;5019783;28;20017;-69
2024/01/24 10:46:16;;;;;;;15.57;3.25;;;12.10;95.80;;;;;;5019123;28;20029;-70
2024/01/24 10:48:41;;;;;;;12.05;2.60;;;12.10;95.40;;;;;;5013316;28;20398;-70
2024/01/24 10:51:07;;;;;;;12.85;2.60;;;12.10;95.80;;;;;;5008173;28;20680;-70
2024/01/24 10:53:34;;;;;;;10.43;2.30;;;12.10;95.90;;;;;;5011574;28;20033;-69
2024/01/24 10:56:01;;;;;;;11.77;2.72;;;12.00;96.50;;;;;;5008978;28;20033;-69
2024/01/24 10:58:28;;;;;;;12.18;2.78;;;11.80;96.40;;;;;;5010675;28;20560;-69
2024/01/24 11:00:54;;;;;;;13.40;3.05;;;11.70;97.20;;;;;;5007747;28;20044;-69
2024/01/24 11:03:19;;;;;;;12.85;3.53;;;11.60;96.60;;;;;;5011527;28;20022;-69
2024/01/24 11:05:55;;;;;;;17.27;2.70;;;11.60;96.90;;;;;;5017717;28;20167;-69
2024/01/24 11:08:44;;;;;;;11.70;3.03;;;11.50;96.90;;;;;;5008856;28;20025;-69
2024/01/24 11:11:13;;;;;;;11.90;3.22;;;11.50;97.00;;;;;;5011875;28;20083;-69
2024/01/24 11:13:40;;;;;;;18.25;3.63;;;11.40;96.60;;;;;;5017281;28;20047;-69
2024/01/24 11:16:25;;;;;;;10.20;2.92;;;11.40;96.90;;;;;;5011967;28;20477;-70
2024/01/24 11:18:51;;;;;;;14.77;3.63;;;11.30;96.20;;;;;;5009519;28;20084;-69
2024/01/24 11:21:21;;;;;;;19.23;4.18;;;11.40;95.90;;;;;;5015120;28;20022;-69
2024/01/24 11:23:48;;;;;;;12.73;2.95;;;11.40;94.70;;;;;;5016873;28;20091;-69
2024/01/24 11:26:36;;;;;;;11.65;3.13;;;11.40;93.60;;;;;;5013330;28;20108;-70
2024/01/24 11:29:10;;;;;;;15.20;2.95;;;11.40;93.50;;;;;;5005204;28;20017;-69
2024/01/24 11:31:40;;;;;;;14.50;3.08;;;11.50;93.60;;;;;;5008704;28;20104;-69
2024/01/24 11:34:14;;;;;;;12.55;2.90;;;11.50;93.20;;;;;;5018014;28;20042;-70
2024/01/24 11:36:51;;;;;;;19.73;3.95;;;11.40;92.90;;;;;;5016764;28;20433;-70
2024/01/24 11:39:31;;;;;;;13.13;3.20;;;11.40;92.20;;;;;;5018631;28;20132;-70
2024/01/24 11:42:25;;;;;;;22.15;3.58;;;11.40;91.70;;;;;;5010843;28;20029;-69
2024/01/24 11:44:54;;;;;;;12.45;3.35;;;11.40;91.70;;;;;;5014030;28;20524;-69
2024/01/24 11:47:23;;;;;;;14.63;3.03;;;11.50;91.50;;;;;;5018460;28;20021;-69
2024/01/24 11:49:49;;;;;;;18.60;4.07;;;11.50;90.90;;;;;;5008017;28;20407;-69
2024/01/24 11:52:20;;;;;;;15.52;3.75;;;11.50;90.60;;;;;;5014895;28;20074;-69
2024/01/24 11:54:52;;;;;;;16.38;4.03;;;11.60;88.30;;;;;;5010673;28;20486;-68
2024/01/24 11:57:18;;;;;;;11.93;3.58;;;11.60;87.70;;;;;;5016340;28;20494;-69
2024/01/24 11:59:44;;;;;;;13.63;3.38;;;11.60;88.00;;;;;;5008568;28;20057;-69
2024/01/24 12:02:09;;;;;;;10.85;2.47;;;11.50;87.50;;;;;;5009845;28;20040;-69
2024/01/24 12:04:35;;;;;;;14.15;2.70;;;11.50;86.50;;;;;;5019573;28;20021;-69
2024/01/24 12:07:01;;;;;;;7.28;2.00;;;11.50;86.50;;;;;;5013925;28;20052;-70
2024/01/24 12:09:27;;;;;;;12.57;3.25;;;11.50;86.60;;;;;;5016088;28;20371;-69
2024/01/24 12:11:52;;;;;;;13.48;2.80;;;11.50;85.60;;;;;;5018261;28;20037;-69
2024/01/24 12:14:19;;;;;;;11.52;2.78;;;11.60;84.10;;;;;;5020487;28;20029;-70
2024/01/24 12:16:46;;;;;;;11.02;4.13;;;11.70;83.50;;;;;;5015494;28;20030;-69
2024/01/24 12:19:13;;;;;;;16.60;3.72;;;11.70;83.00;;;;;;5018352;28;20038;-70
2024/01/24 12:21:40;;;;;;;11.32;3.05;;;11.70;82.40;;;;;;5011161;28;20123;-70
2024/01/24 12:24:06;;;;;;;14.13;3.35;;;11.80;83.10;;;;;;5015885;28;20026;-70
2024/01/24 12:26:32;;;;;;;14.55;2.83;;;11.80;82.50;;;;;;5016716;28;20394;-70
2024/01/24 12:28:59;;;;;;;14.57;3.03;;;11.80;82.30;;;;;;5021833;28;20030;-70
2024/01/24 12:31:31;;;;;;;18.10;3.83;;;11.80;81.90;;;;;;5016687;28;20045;-70
2024/01/24 12:33:56;;;;;;;16.25;2.63;;;11.70;81.80;;;;;;5017695;28;20071;-70
2024/01/24 12:36:26;;;;;;;14.75;3.00;;;11.80;82.10;;;;;;5012574;28;20034;-70
2024/01/24 12:38:55;;;;;;;15.50;3.30;;;11.80;81.00;;;;;;5019891;28;20041;-70
2024/01/24 12:41:21;;;;;;;14.43;3.95;;;11.80;80.10;;;;;;5017204;28;20537;-70
2024/01/24 12:43:47;;;;;;;8.68;2.33;;;11.80;78.80;;;;;;5019443;28;20032;-70
2024/01/24 12:46:12;;;;;;;11.27;3.17;;;11.70;79.40;;;;;;5013890;28;20030;-70